Time;durP1;ratioP1;P1;durP2;ratioP2;P2;SDS_P1;SDS_P2;PMS_P1;PMS_P2;Temp;Humidity;BMP_temperature;BMP_pressure;BME280_temperature;BME280_humidity;BME280_pressure;Samples;Min_cycle;Max_cycle;Signal;HPM_P1;HPM_P2
2024/03/04 00:02:39;;;;;;;18.85;8.02;;;;;;;6.98;100.00;100274.75;6277335;28;20049;-75
2024/03/04 00:05:41;;;;;;;22.35;8.70;;;;;;;6.95;100.00;100274.88;6262134;28;20048;-75
2024/03/04 00:08:43;;;;;;;19.38;8.70;;;;;;;6.95;100.00;100274.88;6277255;28;20056;-75
2024/03/04 00:11:45;;;;;;;18.20;7.25;;;;;;;6.98;100.00;100286.03;6277445;28;20452;-75
2024/03/04 00:14:47;;;;;;;17.02;8.15;;;;;;;6.99;100.00;100287.72;6277042;28;20045;-76
2024/03/04 00:17:48;;;;;;;20.52;9.15;;;;;;;7.00;100.00;100289.44;6277471;28;20097;-73
2024/03/04 00:20:50;;;;;;;25.30;9.40;;;;;;;6.99;100.00;100290.34;6276573;28;20207;-74
2024/03/04 00:23:52;;;;;;;19.33;7.75;;;;;;;6.98;100.00;100299.09;6277188;28;20057;-74
2024/03/04 00:26:54;;;;;;;20.83;9.57;;;;;;;6.92;100.00;100295.94;6263696;28;20048;-74
2024/03/04 00:29:55;;;;;;;20.88;8.45;;;;;;;6.91;100.00;100299.47;6276517;28;20056;-73
2024/03/04 00:32:57;;;;;;;26.73;9.43;;;;;;;6.86;100.00;100308.34;6277055;28;20056;-74
2024/03/04 00:35:59;;;;;;;20.05;8.45;;;;;;;6.81;100.00;100309.44;6276928;28;20052;-74
2024/03/04 00:39:03;;;;;;;19.23;8.38;;;;;;;6.78;100.00;100301.78;6276276;28;20067;-74
2024/03/04 00:42:05;;;;;;;14.77;7.13;;;;;;;6.76;100.00;100304.44;6276614;28;20057;-74
2024/03/04 00:45:07;;;;;;;20.23;8.98;;;;;;;6.78;100.00;100309.59;6274022;28;20442;-74
2024/03/04 00:48:08;;;;;;;16.73;7.80;;;;;;;6.75;100.00;100305.34;6268075;28;20049;-74
2024/03/04 00:51:10;;;;;;;20.67;8.30;;;;;;;6.72;100.00;100315.97;6276313;28;20444;-74
2024/03/04 00:54:13;;;;;;;20.92;9.20;;;;;;;6.66;100.00;100302.31;6276086;28;20060;-74
2024/03/04 00:57:14;;;;;;;19.30;8.27;;;;;;;6.63;100.00;100305.88;6276315;28;20071;-74
2024/03/04 01:00:17;;;;;;;20.33;8.82;;;;;;;6.59;100.00;100309.56;6275690;28;20346;-74
2024/03/04 01:03:19;;;;;;;18.73;8.13;;;;;;;6.52;100.00;100306.38;6268431;28;20069;-74
2024/03/04 01:06:20;;;;;;;25.20;8.63;;;;;;;6.52;100.00;100314.19;6261838;28;20060;-74
2024/03/04 01:09:23;;;;;;;23.38;9.00;;;;;;;6.53;100.00;100309.81;6274060;28;20139;-74
2024/03/04 01:12:24;;;;;;;20.00;8.40;;;;;;;6.52;100.00;100318.59;6269397;28;20052;-74
2024/03/04 01:15:26;;;;;;;23.98;9.05;;;;;;;6.49;100.00;100318.69;6267522;28;20049;-74
2024/03/04 01:18:27;;;;;;;18.38;8.30;;;;;;;6.48;100.00;100315.25;6275765;28;20132;-74
2024/03/04 01:21:28;;;;;;;19.63;8.68;;;;;;;6.46;100.00;100317.09;6275622;28;20110;-74
2024/03/04 01:24:31;;;;;;;21.73;8.90;;;;;;;6.48;100.00;100328.31;6275674;28;20067;-74
2024/03/04 01:27:32;;;;;;;22.75;9.25;;;;;;;6.49;100.00;100316.94;6276045;28;20045;-74
2024/03/04 01:30:34;;;;;;;23.63;9.27;;;;;;;6.48;100.00;100323.06;6275249;28;20132;-75
2024/03/04 01:33:36;;;;;;;19.63;8.82;;;;;;;6.53;100.00;100323.72;6260457;28;20053;-74
2024/03/04 01:36:38;;;;;;;22.27;9.52;;;;;;;6.53;100.00;100326.34;6275510;28;20056;-74
2024/03/04 01:39:40;;;;;;;22.63;10.10;;;;;;;6.54;100.00;100324.56;6270455;28;20056;-75
2024/03/04 01:42:43;;;;;;;20.60;8.02;;;;;;;6.52;100.00;100329.03;6268040;28;20057;-74
2024/03/04 01:45:45;;;;;;;24.42;8.80;;;;;;;6.49;100.00;100329.16;6275183;28;20040;-74
2024/03/04 01:48:47;;;;;;;16.25;7.95;;;;;;;6.49;100.00;100332.59;6275147;28;20048;-74
2024/03/04 01:51:48;;;;;;;21.67;9.77;;;;;;;6.43;100.00;100332.88;6275365;28;20425;-74
2024/03/04 01:54:53;;;;;;;19.98;9.63;;;;;;;6.41;100.00;100321.66;6274966;28;20049;-74
2024/03/04 01:57:54;;;;;;;19.60;8.70;;;;;;;6.44;100.00;100326.72;6275251;28;20049;-74
2024/03/04 02:00:57;;;;;;;22.08;9.68;;;;;;;6.41;100.00;100334.72;6274561;28;20052;-74
2024/03/04 02:03:58;;;;;;;21.25;10.15;;;;;;;6.37;100.00;100332.31;6275372;28;20186;-74
2024/03/04 02:07:01;;;;;;;23.05;9.23;;;;;;;6.38;100.00;100337.44;6275166;28;20045;-74
2024/03/04 02:10:06;;;;;;;18.17;8.60;;;;;;;6.39;100.00;100343.50;6273381;28;20044;-74
2024/03/04 02:13:08;;;;;;;25.20;9.65;;;;;;;6.36;100.00;100349.72;6267584;28;20130;-74
2024/03/04 02:16:09;;;;;;;22.38;8.60;;;;;;;6.35;100.00;100345.41;6269905;28;20135;-74
2024/03/04 02:19:14;;;;;;;19.55;9.32;;;;;;;6.30;100.00;100337.75;6265398;28;20061;-74
2024/03/04 02:22:17;;;;;;;22.23;9.18;;;;;;;6.32;100.00;100333.34;6267048;28;20044;-74
2024/03/04 02:25:22;;;;;;;27.35;9.70;;;;;;;6.28;100.00;100338.75;6254921;28;20050;-74
2024/03/04 02:28:27;;;;;;;25.80;10.48;;;;;;;6.25;100.00;100344.94;6254867;28;20132;-74
2024/03/04 02:31:29;;;;;;;22.98;9.18;;;;;;;6.22;100.00;100352.03;6254950;28;20041;-74
2024/03/04 02:34:31;;;;;;;25.02;9.45;;;;;;;6.21;100.00;100347.75;6255008;28;20526;-74
2024/03/04 02:37:33;;;;;;;23.80;9.88;;;;;;;6.18;100.00;100353.94;6255093;28;20056;-74
2024/03/04 02:40:35;;;;;;;23.92;10.02;;;;;;;6.14;100.00;100349.78;6254299;28;20045;-74
2024/03/04 02:43:37;;;;;;;25.20;10.02;;;;;;;6.10;100.00;100353.41;6255105;28;20565;-74
2024/03/04 02:46:40;;;;;;;21.60;9.40;;;;;;;6.14;100.00;100352.38;6254602;28;20049;-74
2024/03/04 02:49:41;;;;;;;25.48;10.27;;;;;;;6.12;100.00;100356.78;6254495;28;20050;-74
2024/03/04 02:52:44;;;;;;;19.80;10.02;;;;;;;6.12;100.00;100363.78;6254943;28;20060;-74
2024/03/04 02:55:46;;;;;;;28.17;11.02;;;;;;;6.10;100.00;100369.91;6254463;28;20179;-74
2024/03/04 02:58:48;;;;;;;23.65;9.88;;;;;;;6.09;100.00;100365.63;6253940;28;20061;-74
2024/03/04 03:01:49;;;;;;;20.52;8.65;;;;;;;6.13;100.00;100371.53;6260497;28;20052;-74
2024/03/04 03:04:50;;;;;;;22.75;9.95;;;;;;;6.12;100.00;100382.03;6270680;28;20053;-74
2024/03/04 03:07:52;;;;;;;25.13;10.73;;;;;;;6.10;100.00;100385.56;6278995;28;20071;-74
2024/03/04 03:10:54;;;;;;;24.58;11.15;;;;;;;6.07;100.00;100387.44;6277498;28;20051;-74
2024/03/04 03:13:56;;;;;;;26.42;10.15;;;;;;;6.04;100.00;100397.97;6264861;28;20060;-74
2024/03/04 03:16:57;;;;;;;22.95;10.45;;;;;;;6.04;100.00;100395.38;6278559;28;20218;-74
2024/03/04 03:19:59;;;;;;;27.05;10.48;;;;;;;6.03;100.00;100399.75;6278266;28;20055;-74
2024/03/04 03:23:00;;;;;;;19.83;9.05;;;;;;;6.01;100.00;100403.34;6278614;28;20055;-74
2024/03/04 03:26:03;;;;;;;25.73;10.38;;;;;;;5.98;100.00;100409.53;6277049;28;20057;-74
2024/03/04 03:29:04;;;;;;;21.92;9.35;;;;;;;5.98;100.00;100421.72;6275147;28;20041;-73
2024/03/04 03:32:07;;;;;;;23.30;10.25;;;;;;;5.98;100.00;100419.09;6265564;28;20068;-73
2024/03/04 03:35:09;;;;;;;25.45;10.45;;;;;;;5.91;100.00;100415.88;6265914;28;20120;-74
2024/03/04 03:38:10;;;;;;;26.48;10.63;;;;;;;5.89;100.00;100424.66;6277534;28;20037;-74
2024/03/04 03:41:13;;;;;;;33.60;11.75;;;;;;;5.84;100.00;100425.69;6277326;28;20318;-74
2024/03/04 03:44:14;;;;;;;23.98;10.10;;;;;;;5.82;100.00;100424.06;6277244;28;20107;-74
2024/03/04 03:47:16;;;;;;;21.30;10.35;;;;;;;5.81;100.00;100436.25;6255811;28;20053;-74
2024/03/04 03:50:17;;;;;;;24.00;10.13;;;;;;;5.80;100.00;100434.53;6252870;28;20128;-74
2024/03/04 03:53:19;;;;;;;20.20;9.98;;;;;;;5.79;100.00;100437.19;6252728;28;20389;-74
2024/03/04 03:56:22;;;;;;;25.02;10.20;;;;;;;5.77;100.00;100436.44;6252824;28;20052;-74
2024/03/04 03:59:23;;;;;;;23.90;10.95;;;;;;;5.75;100.00;100443.44;6252219;28;20056;-74
2024/03/04 04:02:25;;;;;;;21.48;9.55;;;;;;;5.68;100.00;100453.28;6252842;28;20045;-74
2024/03/04 04:05:26;;;;;;;23.98;9.65;;;;;;;5.64;100.00;100451.69;6252476;28;20134;-74
2024/03/04 04:08:28;;;;;;;24.50;9.95;;;;;;;5.61;100.00;100451.78;6257819;28;20464;-74
2024/03/04 04:11:30;;;;;;;22.25;10.70;;;;;;;5.59;100.00;100461.44;6259477;28;20502;-74
2024/03/04 04:14:32;;;;;;;27.33;10.68;;;;;;;5.56;100.00;100461.53;6277299;28;20040;-74
2024/03/04 04:17:33;;;;;;;25.55;11.13;;;;;;;5.55;100.00;100467.66;6277321;28;20437;-74
2024/03/04 04:20:34;;;;;;;24.90;9.80;;;;;;;5.52;100.00;100476.44;6276639;28;20045;-74
2024/03/04 04:23:36;;;;;;;21.33;9.73;;;;;;;5.47;100.00;100483.56;6276665;28;20041;-74
2024/03/04 04:26:39;;;;;;;26.33;10.57;;;;;;;5.44;100.00;100485.44;6251868;28;20072;-74
2024/03/04 04:29:40;;;;;;;26.98;10.82;;;;;;;5.39;100.00;100484.75;6251678;28;20042;-74
2024/03/04 04:32:41;;;;;;;22.27;10.40;;;;;;;5.37;100.00;100486.59;6251777;28;20445;-74
2024/03/04 04:35:43;;;;;;;23.27;9.98;;;;;;;5.32;100.00;100482.38;6251729;28;20060;-73
2024/03/04 04:38:45;;;;;;;30.95;11.10;;;;;;;5.27;100.00;100480.84;6251420;28;20053;-74
2024/03/04 04:41:47;;;;;;;28.58;10.20;;;;;;;5.27;100.00;100478.25;6251964;28;20136;-74
2024/03/04 04:44:49;;;;;;;27.42;11.27;;;;;;;5.25;100.00;100488.69;6251405;28;20052;-74
2024/03/04 04:47:50;;;;;;;23.58;9.75;;;;;;;5.23;100.00;100494.88;6261864;28;20049;-74
2024/03/04 04:50:52;;;;;;;24.75;11.45;;;;;;;5.19;100.00;100494.13;6275727;28;20102;-74
2024/03/04 04:53:53;;;;;;;25.90;10.20;;;;;;;5.22;100.00;100500.97;6276116;28;20052;-74
2024/03/04 04:56:56;;;;;;;21.38;10.75;;;;;;;5.14;100.00;100508.25;6275933;28;20133;-74
2024/03/04 04:59:57;;;;;;;25.88;10.38;;;;;;;5.10;100.00;100512.69;6275384;28;20060;-74
2024/03/04 05:02:59;;;;;;;26.20;11.70;;;;;;;5.09;100.00;100518.81;6264306;28;20426;-74
2024/03/04 05:06:01;;;;;;;23.38;9.98;;;;;;;5.06;100.00;100518.91;6253643;28;20135;-74
2024/03/04 05:09:03;;;;;;;22.25;9.88;;;;;;;5.02;100.00;100510.34;6258874;28;20461;-74
2024/03/04 05:12:06;;;;;;;24.45;10.05;;;;;;;4.99;100.00;100517.41;6262655;28;20052;-74
2024/03/04 05:15:08;;;;;;;23.63;9.63;;;;;;;4.97;100.00;100514.00;6275542;28;20434;-74
2024/03/04 05:18:10;;;;;;;20.50;9.60;;;;;;;4.98;100.00;100519.16;6275538;28;20040;-74
2024/03/04 05:21:11;;;;;;;28.55;9.63;;;;;;;4.99;100.00;100520.00;6275122;28;20073;-74
2024/03/04 05:24:13;;;;;;;22.77;9.52;;;;;;;5.00;100.00;100530.41;6275232;28;20052;-74
2024/03/04 05:27:16;;;;;;;21.90;8.85;;;;;;;5.03;100.00;100534.63;6253901;28;20049;-74
2024/03/04 05:30:17;;;;;;;21.08;9.52;;;;;;;5.00;100.00;100550.38;6272112;28;20048;-74
2024/03/04 05:33:19;;;;;;;28.30;10.60;;;;;;;4.95;100.00;100552.25;6275044;28;20048;-74
2024/03/04 05:36:21;;;;;;;25.98;10.93;;;;;;;4.92;100.00;100553.22;6275270;28;20055;-74
2024/03/04 05:39:22;;;;;;;28.15;10.77;;;;;;;4.92;100.00;100549.78;6274756;28;20048;-74
2024/03/04 05:42:25;;;;;;;34.42;11.48;;;;;;;4.89;100.00;100555.94;6275206;28;20052;-74
2024/03/04 05:45:27;;;;;;;28.88;11.70;;;;;;;4.82;100.00;100555.28;6268180;28;20052;-74
2024/03/04 05:48:28;;;;;;;27.02;11.23;;;;;;;4.84;100.00;100563.88;6256264;28;20076;-74
2024/03/04 05:51:30;;;;;;;27.35;11.85;;;;;;;4.80;100.00;100571.84;6274664;28;20048;-74
2024/03/04 05:54:32;;;;;;;27.92;11.07;;;;;;;4.79;100.00;100564.94;6274761;28;20047;-74
2024/03/04 05:57:35;;;;;;;29.17;11.73;;;;;;;4.79;100.00;100568.41;6274873;28;20326;-75
2024/03/04 06:00:36;;;;;;;27.17;9.73;;;;;;;4.81;100.00;100570.94;6274273;28;20134;-75
2024/03/04 06:03:37;;;;;;;27.63;11.27;;;;;;;4.81;100.00;100564.00;6250344;28;20045;-75
2024/03/04 06:06:40;;;;;;;30.02;10.85;;;;;;;4.83;100.00;100570.00;6274498;28;20453;-75
2024/03/04 06:09:41;;;;;;;27.27;11.80;;;;;;;4.85;100.00;100572.53;6274409;28;20041;-74
2024/03/04 06:12:44;;;;;;;38.30;15.82;;;;;;;4.89;100.00;100571.53;6274168;28;20045;-75
2024/03/04 06:15:46;;;;;;;66.72;19.88;;;;;;;4.91;100.00;100564.56;6257095;28;20456;-74
2024/03/04 06:18:47;;;;;;;36.03;14.10;;;;;;;4.87;100.00;100573.38;6249719;28;20049;-74
2024/03/04 06:21:48;;;;;;;30.02;12.15;;;;;;;4.85;100.00;100572.53;6249864;28;20061;-74
2024/03/04 06:24:50;;;;;;;34.88;14.38;;;;;;;4.89;100.00;100581.97;6249884;28;20430;-74
2024/03/04 06:27:52;;;;;;;35.92;15.75;;;;;;;4.93;100.00;100585.31;6250196;28;20195;-75
2024/03/04 06:30:54;;;;;;;26.77;11.27;;;;;;;4.98;100.00;100586.03;6249324;28;20060;-74
2024/03/04 06:33:55;;;;;;;27.08;11.70;;;;;;;5.03;100.00;100586.72;6250128;28;20053;-74
2024/03/04 06:36:57;;;;;;;23.80;11.73;;;;;;;5.05;100.00;100585.78;6249568;28;20385;-75
2024/03/04 06:39:59;;;;;;;24.63;11.00;;;;;;;5.03;100.00;100592.78;6248918;28;20179;-75
2024/03/04 06:43:02;;;;;;;31.67;12.88;;;;;;;5.03;100.00;100594.53;6249999;28;20049;-74
2024/03/04 06:46:03;;;;;;;29.45;11.50;;;;;;;5.07;100.00;100596.13;6249473;28;20045;-75
2024/03/04 06:49:05;;;;;;;25.90;10.68;;;;;;;5.08;100.00;100606.50;6249362;28;20050;-75
2024/03/04 06:52:06;;;;;;;30.23;11.48;;;;;;;5.13;100.00;100605.50;6249479;28;20041;-75
2024/03/04 06:55:08;;;;;;;31.15;12.32;;;;;;;5.13;100.00;100597.69;6249432;28;20355;-75
2024/03/04 06:58:11;;;;;;;27.30;11.80;;;;;;;5.17;100.00;100607.09;6249347;28;20065;-75
2024/03/04 07:01:12;;;;;;;25.27;10.90;;;;;;;5.22;100.00;100605.19;6253313;28;20044;-75
2024/03/04 07:04:14;;;;;;;32.63;11.95;;;;;;;5.25;100.00;100612.91;6257560;28;20060;-74
2024/03/04 07:07:15;;;;;;;32.88;12.77;;;;;;;5.29;100.00;100620.56;6257692;28;20048;-73
2024/03/04 07:10:16;;;;;;;32.05;12.70;;;;;;;5.33;100.00;100621.31;6270084;28;20426;-75
2024/03/04 07:13:19;;;;;;;30.65;12.48;;;;;;;5.41;100.00;100634.94;6258717;28;20353;-75
2024/03/04 07:16:21;;;;;;;24.15;10.82;;;;;;;5.49;100.00;100637.28;6278605;28;20045;-75
2024/03/04 07:19:23;;;;;;;29.98;12.68;;;;;;;5.56;100.00;100642.22;6277914;28;20084;-75
2024/03/04 07:22:24;;;;;;;25.50;10.82;;;;;;;5.61;100.00;100639.47;6278341;28;20051;-75
2024/03/04 07:25:26;;;;;;;29.40;13.85;;;;;;;5.65;100.00;100635.00;6271953;28;20037;-75
2024/03/04 07:28:29;;;;;;;31.65;12.85;;;;;;;5.67;100.00;100644.47;6259557;28;20045;-75
2024/03/04 07:31:31;;;;;;;29.58;12.35;;;;;;;5.77;100.00;100645.03;6278572;28;20049;-75
2024/03/04 07:34:32;;;;;;;25.10;11.00;;;;;;;5.78;100.00;100654.53;6277919;28;20361;-73
2024/03/04 07:37:34;;;;;;;22.30;10.63;;;;;;;5.70;100.00;100652.19;6278261;28;20236;-75
2024/03/04 07:40:35;;;;;;;20.58;10.93;;;;;;;5.73;100.00;100651.25;6277589;28;20437;-75
2024/03/04 07:43:40;;;;;;;26.30;11.77;;;;;;;5.82;100.00;100656.97;6277940;28;20452;-75
2024/03/04 07:46:42;;;;;;;28.33;11.52;;;;;;;5.95;100.00;100659.16;6277910;28;20041;-75
2024/03/04 07:49:43;;;;;;;32.92;11.55;;;;;;;5.96;100.00;100664.34;6277397;28;20076;-73
2024/03/04 07:52:46;;;;;;;20.60;9.77;;;;;;;6.01;100.00;100667.63;6270977;28;20044;-73
2024/03/04 07:55:48;;;;;;;19.45;9.70;;;;;;;6.03;100.00;100676.25;6261577;28;20048;-75
2024/03/04 07:58:51;;;;;;;20.80;10.23;;;;;;;6.06;100.00;100678.75;6260234;28;20049;-75
2024/03/04 08:01:53;;;;;;;19.58;10.30;;;;;;;6.15;100.00;100668.91;6254625;28;20041;-75
2024/03/04 08:04:54;;;;;;;22.55;10.75;;;;;;;6.21;100.00;100668.66;6277195;28;20049;-75
2024/03/04 08:07:57;;;;;;;24.77;11.95;;;;;;;6.25;100.00;100665.88;6277670;28;20057;-75
2024/03/04 08:10:58;;;;;;;22.45;11.20;;;;;;;6.17;100.00;100675.75;6276225;28;21824;-75
2024/03/04 08:14:01;;;;;;;29.40;12.18;;;;;;;6.31;100.00;100686.56;6276272;28;20052;-74
2024/03/04 08:17:03;;;;;;;20.73;10.45;;;;;;;6.47;100.00;100688.59;6265085;28;20475;-74
2024/03/04 08:20:06;;;;;;;25.92;12.85;;;;;;;6.50;100.00;100688.50;6273073;28;20053;-75
2024/03/04 08:23:07;;;;;;;25.15;11.43;;;;;;;6.53;100.00;100685.75;6272933;22;20049;-75
2024/03/04 08:26:09;;;;;;;26.25;12.05;;;;;;;6.64;100.00;100682.75;6231708;28;20045;-75
2024/03/04 08:29:12;;;;;;;30.77;12.48;;;;;;;6.74;100.00;100684.09;6226451;28;20052;-77
2024/03/04 08:32:13;;;;;;;26.23;12.45;;;;;;;6.83;100.00;100689.81;6225680;28;20069;-77
2024/03/04 08:35:14;;;;;;;25.98;13.10;;;;;;;6.93;100.00;100690.28;6220493;28;20071;-74
2024/03/04 08:38:16;;;;;;;25.98;12.27;;;;;;;7.07;100.00;100698.44;6226331;28;20056;-74
2024/03/04 08:41:17;;;;;;;26.52;12.07;;;;;;;7.16;100.00;100706.81;6226723;28;20046;-75
2024/03/04 08:44:20;;;;;;;30.98;14.80;;;;;;;7.17;100.00;100709.38;6226936;28;20509;-75
2024/03/04 08:47:22;;;;;;;28.02;13.48;;;;;;;7.29;100.00;100708.88;6223081;28;20045;-75
2024/03/04 08:50:23;;;;;;;23.40;12.10;;;;;;;7.39;100.00;100711.97;6220042;28;20046;-75
2024/03/04 08:53:25;;;;;;;25.80;13.52;;;;;;;7.47;100.00;100706.44;6226824;28;20042;-75
2024/03/04 08:56:27;;;;;;;27.98;13.55;;;;;;;7.48;100.00;100708.13;6226496;28;20053;-75
2024/03/04 08:59:30;;;;;;;31.50;13.43;;;;;;;7.59;100.00;100713.78;6226649;28;20438;-76
2024/03/04 09:02:32;;;;;;;27.27;13.35;;;;;;;7.67;100.00;100718.69;6226806;28;20338;-74
2024/03/04 09:05:33;;;;;;;25.33;11.90;;;;;;;7.77;100.00;100722.63;6225907;28;20045;-76
2024/03/04 09:08:35;;;;;;;32.45;14.77;;;;;;;7.81;100.00;100724.19;6226318;28;20132;-75
2024/03/04 09:11:36;;;;;;;26.30;13.30;;;;;;;7.82;100.00;100729.38;6226800;28;20053;-78
2024/03/04 09:14:39;;;;;;;30.88;13.02;;;;;;;7.85;100.00;100731.84;6203048;28;20050;-77
2024/03/04 09:17:40;;;;;;;25.58;12.85;;;;;;;7.87;100.00;100731.78;6209186;28;20054;-78
2024/03/04 09:20:42;;;;;;;31.63;13.63;;;;;;;7.92;100.00;100729.81;6226311;28;20049;-79
2024/03/04 09:23:43;;;;;;;32.72;12.85;;;;;;;7.99;100.00;100726.00;6217724;28;20328;-78
2024/03/04 09:26:46;;;;;;;38.50;15.68;;;;;;;8.03;100.00;100724.13;6218510;28;20050;-77
2024/03/04 09:29:48;;;;;;;34.33;14.80;;;;;;;8.04;100.00;100724.06;6210188;28;20053;-76
2024/03/04 09:32:50;;;;;;;34.50;15.02;;;;;;;8.11;100.00;100735.13;6226380;28;20419;-78
2024/03/04 09:35:52;;;;;;;31.98;15.25;;;;;;;8.20;100.00;100734.72;6202683;28;20046;-77
2024/03/04 09:38:54;;;;;;;39.42;15.77;;;;;;;8.27;100.00;100728.31;6201536;28;20057;-75
2024/03/04 09:41:55;;;;;;;39.53;16.80;;;;;;;8.35;100.00;100735.81;6204349;28;20072;-75
2024/03/04 09:45:00;;;;;;;38.25;16.27;;;;;;;8.34;100.00;100736.72;6224247;28;20046;-75
2024/03/04 09:48:02;;;;;;;38.78;16.98;;;;;;;8.28;100.00;100744.84;6225800;28;20049;-75
2024/03/04 09:51:06;;;;;;;42.72;17.50;;;;;;;8.30;100.00;100750.88;6224569;28;20050;-78
2024/03/04 09:54:08;;;;;;;39.90;17.23;;;;;;;8.47;100.00;100743.16;6225163;28;20050;-77
2024/03/04 09:57:10;;;;;;;46.15;19.80;;;;;;;8.59;100.00;100750.47;6228368;28;20046;-80
2024/03/04 10:00:14;;;;;;;46.88;17.65;;;;;;;8.81;100.00;100758.22;6216837;28;20471;-77
2024/03/04 10:03:16;;;;;;;51.17;19.55;;;;;;;8.95;100.00;100754.94;6221802;28;20046;-79
2024/03/04 10:06:18;;;;;;;43.85;16.58;;;;;;;8.99;100.00;100759.09;6202373;28;20165;-78
2024/03/04 10:09:19;;;;;;;50.55;19.42;;;;;;;9.04;100.00;100761.53;6220663;28;20058;-78
2024/03/04 10:12:20;;;;;;;53.63;20.08;;;;;;;9.10;100.00;100753.38;6225071;28;20045;-79
2024/03/04 10:15:24;;;;;;;51.58;19.63;;;;;;;9.10;100.00;100764.72;6215906;28;20042;-75
2024/03/04 10:18:25;;;;;;;51.00;19.55;;;;;;;9.15;100.00;100761.88;6210921;28;20057;-78
2024/03/04 10:21:27;;;;;;;43.20;17.67;;;;;;;9.16;100.00;100760.94;6216734;28;20049;-77
2024/03/04 10:24:29;;;;;;;38.47;14.57;;;;;;;9.31;100.00;100756.72;6220172;28;20049;-77
2024/03/04 10:27:30;;;;;;;44.67;16.92;;;;;;;9.46;100.00;100753.41;6216563;28;20101;-75
2024/03/04 10:30:34;;;;;;;42.17;16.90;;;;;;;9.53;100.00;100757.41;6225197;28;20141;-78
2024/03/04 10:33:35;;;;;;;39.83;16.23;;;;;;;9.45;100.00;100756.06;6225036;28;20045;-78
2024/03/04 10:36:36;;;;;;;40.15;15.63;;;;;;;9.33;100.00;100758.38;6229760;28;20046;-78
2024/03/04 10:39:38;;;;;;;36.42;14.80;;;;;;;9.32;100.00;100755.84;6229655;28;20057;-79
2024/03/04 10:42:41;;;;;;;44.35;16.40;;;;;;;9.32;100.00;100766.31;6229739;28;20081;-79
2024/03/04 10:45:44;;;;;;;41.80;17.05;;;;;;;9.25;100.00;100763.13;6229759;28;20434;-77
2024/03/04 10:48:46;;;;;;;41.58;17.38;;;;;;;9.17;100.00;100762.63;6229710;28;20127;-76
2024/03/04 10:51:48;;;;;;;46.67;18.10;;;;;;;9.29;100.00;100767.31;6229477;28;20042;-77
2024/03/04 10:54:49;;;;;;;41.40;17.27;;;;;;;9.29;100.00;100772.56;6229117;28;20053;-78
2024/03/04 10:57:57;;;;;;;43.08;17.08;;;;;;;9.29;100.00;100766.47;6229808;28;20041;-75
2024/03/04 11:01:03;;;;;;;43.33;17.52;;;;;;;9.41;100.00;100768.50;6227776;28;20077;-78
2024/03/04 11:04:05;;;;;;;44.42;16.83;;;;;;;9.46;100.00;100781.41;6214498;28;20050;-78
2024/03/04 11:07:12;;;;;;;41.83;17.05;;;;;;;9.54;100.00;100777.47;6215899;28;20112;-78
2024/03/04 11:10:23;;;;;;;46.20;17.70;;;;;;;9.51;100.00;100776.78;6220766;28;20074;-77
2024/03/04 11:13:29;;;;;;;43.92;16.60;;;;;;;9.60;100.00;100777.19;6216575;28;20053;-76
2024/03/04 11:16:39;;;;;;;42.55;16.90;;;;;;;9.64;100.00;100783.97;6227169;28;20042;-77
2024/03/04 11:19:47;;;;;;;37.63;16.77;;;;;;;9.60;100.00;100781.56;6223503;28;20346;-78
2024/03/04 11:22:49;;;;;;;50.85;19.17;;;;;;;9.66;100.00;100781.28;6221567;28;20053;-76
2024/03/04 11:25:51;;;;;;;46.97;19.08;;;;;;;9.53;100.00;100773.13;6228864;28;20042;-75
2024/03/04 11:28:54;;;;;;;49.95;17.60;;;;;;;9.54;100.00;100779.25;6228779;28;20057;-79
2024/03/04 11:31:59;;;;;;;46.65;17.83;;;;;;;9.52;100.00;100778.47;6228898;28;20052;-79
2024/03/04 11:35:05;;;;;;;47.97;19.00;;;;;;;9.50;100.00;100781.19;6223393;28;20446;-77
2024/03/04 11:38:08;;;;;;;56.97;18.92;;;;;;;9.56;100.00;100782.66;6207107;28;20065;-78
2024/03/04 11:41:09;;;;;;;48.75;19.15;;;;;;;9.53;100.00;100786.25;6216496;28;20046;-77
2024/03/04 11:44:11;;;;;;;49.10;18.13;;;;;;;9.52;100.00;100788.97;6214585;28;20057;-79
2024/03/04 11:47:14;;;;;;;44.75;18.38;;;;;;;9.60;100.00;100781.56;6208079;28;20053;-79
2024/03/04 11:50:43;;;;;;;41.30;16.60;;;;;;;9.63;100.00;100789.31;6214999;28;20351;-77
2024/03/04 11:53:45;;;;;;;39.88;17.67;;;;;;;9.64;100.00;100799.72;6208049;28;20078;-77
2024/03/04 11:56:48;;;;;;;48.55;20.05;;;;;;;9.74;100.00;100792.25;6211437;28;20050;-79
2024/03/04 12:00:00;;;;;;;41.38;18.25;;;;;;;9.74;100.00;100794.03;6203634;28;20054;-79
2024/03/04 12:03:04;;;;;;;48.00;18.88;;;;;;;9.74;100.00;100804.50;6203971;28;20051;-79
2024/03/04 12:06:10;;;;;;;53.17;19.45;;;;;;;9.74;100.00;100805.38;6221578;28;20050;-78
2024/03/04 12:09:12;;;;;;;40.88;17.55;;;;;;;9.75;100.00;100806.22;6227931;28;20124;-78
2024/03/04 12:12:14;;;;;;;47.38;18.13;;;;;;;9.81;100.00;100801.53;6208530;28;20050;-77
2024/03/04 12:15:16;;;;;;;46.35;19.88;;;;;;;9.77;100.00;100805.22;6224407;28;20053;-79
2024/03/04 12:18:19;;;;;;;52.53;20.05;;;;;;;9.85;100.00;100804.81;6228137;28;20057;-78
2024/03/04 12:21:20;;;;;;;48.33;19.08;;;;;;;9.86;100.00;100801.31;6215692;28;20042;-78
2024/03/04 12:24:23;;;;;;;48.05;20.70;;;;;;;9.84;100.00;100808.38;6216513;28;20046;-77
2024/03/04 12:27:25;;;;;;;46.17;19.63;;;;;;;9.76;100.00;100816.63;6218509;28;20328;-75
2024/03/04 12:30:27;;;;;;;51.00;21.25;;;;;;;9.75;100.00;100812.31;6227049;28;20046;-78
2024/03/04 12:33:30;;;;;;;57.03;22.67;;;;;;;9.84;100.00;100816.25;6227909;28;20042;-75
2024/03/04 12:36:32;;;;;;;58.03;23.13;;;;;;;9.93;100.00;100814.97;6226644;28;20042;-76
2024/03/04 12:39:33;;;;;;;53.53;22.67;;;;;;;9.75;100.00;100816.72;6227306;28;20045;-76
2024/03/04 12:42:34;;;;;;;58.22;23.83;;;;;;;9.72;100.00;100817.72;6227510;28;20042;-75
2024/03/04 12:45:36;;;;;;;53.17;21.50;;;;;;;9.73;100.00;100819.41;6219334;28;20054;-75
2024/03/04 12:48:39;;;;;;;59.17;21.23;;;;;;;9.85;100.00;100823.19;6227128;28;20442;-78
2024/03/04 12:51:41;;;;;;;64.78;24.30;;;;;;;9.79;100.00;100826.97;6226786;28;20053;-76
2024/03/04 12:54:42;;;;;;;58.95;23.45;;;;;;;9.71;100.00;100823.03;6218142;28;20042;-78
2024/03/04 12:57:44;;;;;;;53.40;23.33;;;;;;;9.73;100.00;100827.28;6226822;28;20042;-79
2024/03/04 13:00:46;;;;;;;52.38;22.98;;;;;;;9.69;100.00;100825.72;6227112;28;20042;-78
2024/03/04 13:03:48;;;;;;;61.22;23.00;;;;;;;9.70;100.00;100831.84;6227047;28;20038;-78
2024/03/04 13:06:50;;;;;;;47.22;19.92;;;;;;;9.66;100.00;100831.13;6226761;28;20431;-79
2024/03/04 13:09:51;;;;;;;53.78;22.95;;;;;;;9.66;100.00;100828.50;6219142;28;20042;-77
2024/03/04 13:12:53;;;;;;;56.63;22.33;;;;;;;9.70;100.00;100827.44;6223981;28;20265;-78
2024/03/04 13:15:55;;;;;;;56.75;20.42;;;;;;;9.80;100.00;100831.31;6233583;28;20050;-79
2024/03/04 13:18:57;;;;;;;65.57;23.35;;;;;;;9.86;100.00;100830.19;6228974;28;20112;-78
2024/03/04 13:21:59;;;;;;;66.00;23.23;;;;;;;9.85;100.00;100825.81;6223082;28;20050;-78
2024/03/04 13:25:00;;;;;;;63.55;23.45;;;;;;;9.67;100.00;100827.56;6227961;28;20454;-78
2024/03/04 13:28:02;;;;;;;56.75;22.00;;;;;;;9.76;100.00;100826.28;6209126;28;20046;-76
2024/03/04 13:31:04;;;;;;;61.08;23.70;;;;;;;9.82;100.00;100818.13;6204408;28;20435;-76
2024/03/04 13:34:06;;;;;;;51.63;21.40;;;;;;;9.86;100.00;100811.81;6226561;28;20046;-78
2024/03/04 13:37:08;;;;;;;58.72;22.02;;;;;;;9.98;100.00;100807.69;6224308;28;20053;-81
2024/03/04 13:40:12;;;;;;;55.53;21.38;;;;;;;9.98;100.00;100813.78;6212943;28;20054;-79
2024/03/04 13:43:13;;;;;;;68.15;24.33;;;;;;;9.90;100.00;100810.69;6226272;28;20045;-79
2024/03/04 13:46:14;;;;;;;64.55;23.83;;;;;;;9.99;100.00;100822.53;6226349;28;20042;-78
2024/03/04 13:49:17;;;;;;;63.65;21.15;;;;;;;9.97;100.00;100814.72;6225886;28;20469;-79
2024/03/04 13:52:19;;;;;;;57.03;21.52;;;;;;;10.09;100.00;100816.75;6214375;28;20046;-78